Time;durP1;ratioP1;P1;durP2;ratioP2;P2;SDS_P1;SDS_P2;PMS_P1;PMS_P2;Temp;Humidity;BMP_temperature;BMP_pressure;BME280_temperature;BME280_humidity;BME280_pressure;Samples;Min_cycle;Max_cycle;Signal;HPM_P1;HPM_P2
2023/12/10 00:02:02;;;;;;;;;;;;;;;19.12;46.43;96960.87;623473;227;64222;-68
2023/12/10 00:04:29;;;;;;;;;;;;;;;19.12;46.43;96952.09;623492;227;66554;-69
2023/12/10 00:06:57;;;;;;;;;;;;;;;19.10;46.43;96947.04;623522;227;62378;-68
2023/12/10 00:09:25;;;;;;;;;;;;;;;19.10;46.42;96941.72;623449;227;66651;-68
2023/12/10 00:11:52;;;;;;;;;;;;;;;19.11;46.42;96937.98;623455;227;64437;-68
2023/12/10 00:14:20;;;;;;;;;;;;;;;19.11;46.39;96942.51;623457;227;65654;-68
2023/12/10 00:16:48;;;;;;;;;;;;;;;19.09;46.42;96940.09;623441;227;64217;-68
2023/12/10 00:19:15;;;;;;;;;;;;;;;19.09;46.42;96940.09;623514;227;66776;-68
2023/12/10 00:21:43;;;;;;;;;;;;;;;19.08;46.43;96947.28;623421;227;62341;-68
2023/12/10 00:24:10;;;;;;;;;;;;;;;19.09;46.45;96937.43;623414;227;67229;-68
2023/12/10 00:26:38;;;;;;;;;;;;;;;19.10;46.45;96941.72;623468;227;64158;-68
2023/12/10 00:29:06;;;;;;;;;;;;;;;19.12;46.41;96941.44;623440;227;64751;-67
2023/12/10 00:31:33;;;;;;;;;;;;;;;19.10;46.36;96938.22;623510;227;66864;-67
2023/12/10 00:34:01;;;;;;;;;;;;;;;19.08;46.40;96927.84;623433;227;66760;-67
2023/12/10 00:36:28;;;;;;;;;;;;;;;19.12;46.35;96939.57;623385;227;64893;-67
2023/12/10 00:38:56;;;;;;;;;;;;;;;19.11;46.36;96929.19;623498;227;64460;-67
2023/12/10 00:41:24;;;;;;;;;;;;;;;19.11;46.35;96929.98;623466;227;66800;-67
2023/12/10 00:43:51;;;;;;;;;;;;;;;19.11;46.33;96937.19;623500;227;62408;-67
2023/12/10 00:46:19;;;;;;;;;;;;;;;19.11;46.33;96935.31;623500;227;66856;-67
2023/12/10 00:48:47;;;;;;;;;;;;;;;19.12;46.35;96939.57;623444;227;64452;-67
2023/12/10 00:51:21;;;;;;;;;;;;;;;19.11;46.34;96931.85;623405;227;65555;-67
2023/12/10 00:53:49;;;;;;;;;;;;;;;19.11;46.35;96926.53;623437;227;66888;-68
2023/12/10 00:56:17;;;;;;;;;;;;;;;19.10;46.37;96923.06;623446;227;64527;-68
2023/12/10 00:58:44;;;;;;;;;;;;;;;19.10;46.34;96915.08;623493;227;64724;-68
2023/12/10 01:01:12;;;;;;;;;;;;;;;19.10;46.32;96909.75;623451;227;64577;-68
2023/12/10 01:03:40;;;;;;;;;;;;;;;19.10;46.37;96898.27;623418;227;66775;-68
2023/12/10 01:06:13;;;;;;;;;;;;;;;19.09;46.38;96894.81;623431;227;62364;-68
2023/12/10 01:08:37;;;;;;;;;;;;;;;19.11;46.37;96895.36;622987;227;67284;-68
2023/12/10 01:11:05;;;;;;;;;;;;;;;19.11;46.44;96886.58;623439;227;64984;-68
2023/12/10 01:13:32;;;;;;;;;;;;;;;19.11;46.37;96882.04;623426;227;62653;-68
2023/12/10 01:16:00;;;;;;;;;;;;;;;19.10;46.37;96871.63;623405;227;67245;-68
2023/12/10 01:18:28;;;;;;;;;;;;;;;19.09;46.42;96865.52;623407;227;64663;-68
2023/12/10 01:20:55;;;;;;;;;;;;;;;19.10;46.39;96872.45;623423;227;65849;-68
2023/12/10 01:23:23;;;;;;;;;;;;;;;19.10;46.34;96867.13;623494;227;64545;-67
2023/12/10 01:25:51;;;;;;;;;;;;;;;19.11;46.35;96859.94;623407;227;67257;-68
2023/12/10 01:28:18;;;;;;;;;;;;;;;19.08;46.40;96850.60;623459;227;62331;-68
2023/12/10 01:30:46;;;;;;;;;;;;;;;19.10;46.34;96855.66;623382;227;67179;-68
2023/12/10 01:33:13;;;;;;;;;;;;;;;19.10;46.36;96861.80;623423;227;64726;-67
2023/12/10 01:35:41;;;;;;;;;;;;;;;19.08;46.38;96847.94;623361;227;66111;-68
2023/12/10 01:38:09;;;;;;;;;;;;;;;19.08;46.36;96851.40;623471;227;64953;-68
2023/12/10 01:40:36;;;;;;;;;;;;;;;19.09;46.36;96849.53;623444;227;66965;-68
2023/12/10 01:43:07;;;;;;;;;;;;;;;19.08;46.41;96839.95;623406;227;64870;-68
2023/12/10 01:45:35;;;;;;;;;;;;;;;19.10;46.37;96845.82;623383;227;67209;-68
2023/12/10 01:48:07;;;;;;;;;;;;;;;19.10;46.39;96848.48;623436;227;64583;-68
2023/12/10 01:50:36;;;;;;;;;;;;;;;19.09;46.39;96833.55;623470;227;62699;-68
2023/12/10 01:53:03;;;;;;;;;;;;;;;19.10;46.46;96840.50;623350;227;67158;-69
2023/12/10 01:55:31;;;;;;;;;;;;;;;19.09;46.39;96844.20;623424;227;64418;-69
2023/12/10 01:57:59;;;;;;;;;;;;;;;19.10;46.44;96834.34;623387;227;64684;-68
2023/12/10 02:00:26;;;;;;;;;;;;;;;19.08;46.48;96832.75;623464;227;64804;-68
2023/12/10 02:02:55;;;;;;;;;;;;;;;19.09;46.44;96830.88;623423;227;67254;-68
2023/12/10 02:05:23;;;;;;;;;;;;;;;19.10;46.42;96827.18;623429;227;62707;-68
2023/12/10 02:07:51;;;;;;;;;;;;;;;19.10;46.42;96829.84;623424;227;67235;-68
2023/12/10 02:10:19;;;;;;;;;;;;;;;19.08;46.44;96834.62;623370;227;67268;-68
2023/12/10 02:12:47;;;;;;;;;;;;;;;19.09;46.42;96838.87;623465;227;64931;-68
2023/12/10 02:15:15;;;;;;;;;;;;;;;19.08;46.39;96832.75;623443;227;67199;-69
2023/12/10 02:17:43;;;;;;;;;;;;;;;19.09;46.44;96830.88;623455;227;66776;-69
2023/12/10 02:20:16;;;;;;;;;;;;;;;19.10;46.41;96829.02;623425;227;63516;-69
2023/12/10 02:23:00;;;;;;;;;;;;;;;19.08;46.41;96823.97;622998;227;66808;-69
2023/12/10 02:25:37;;;;;;;;;;;;;;;19.10;46.38;96831.68;623325;227;67203;-68
2023/12/10 02:28:06;;;;;;;;;;;;;;;19.06;46.38;96821.55;623414;227;65627;-69
2023/12/10 02:30:34;;;;;;;;;;;;;;;19.09;46.44;96817.56;623467;227;67422;-69
2023/12/10 02:33:02;;;;;;;;;;;;;;;19.08;46.39;96819.44;623398;227;64961;-69
2023/12/10 02:35:30;;;;;;;;;;;;;;;19.08;46.39;96823.97;623403;227;63323;-69
2023/12/10 02:37:58;;;;;;;;;;;;;;;19.07;46.41;96825.84;622003;227;67197;-69
2023/12/10 02:40:25;;;;;;;;;;;;;;;19.07;46.47;96825.05;622001;228;64484;-69
2023/12/10 02:42:53;;;;;;;;;;;;;;;19.08;46.44;96831.96;622044;228;64807;-69
2023/12/10 02:45:20;;;;;;;;;;;;;;;19.08;46.45;96829.30;621971;228;66814;-68
2023/12/10 02:47:48;;;;;;;;;;;;;;;19.08;46.49;96834.62;621973;228;66848;-68
2023/12/10 02:50:16;;;;;;;;;;;;;;;19.08;46.46;96835.42;621975;228;65132;-68
2023/12/10 02:52:43;;;;;;;;;;;;;;;19.07;46.48;96830.37;621945;228;64988;-68
2023/12/10 02:55:11;;;;;;;;;;;;;;;19.10;46.45;96832.50;622043;228;67052;-68
2023/12/10 02:57:39;;;;;;;;;;;;;;;19.09;46.42;96838.87;622005;228;62366;-68
2023/12/10 03:00:08;;;;;;;;;;;;;;;19.07;46.47;96831.16;621963;228;67340;-68
2023/12/10 03:02:35;;;;;;;;;;;;;;;19.08;46.40;96842.61;621972;228;65064;-68
2023/12/10 03:05:03;;;;;;;;;;;;;;;19.07;46.46;96839.16;622016;228;64572;-68
2023/12/10 03:07:31;;;;;;;;;;;;;;;19.09;46.48;96846.87;622082;228;66979;-68
2023/12/10 03:09:58;;;;;;;;;;;;;;;19.08;46.54;96845.28;622042;228;67243;-68
2023/12/10 03:12:26;;;;;;;;;;;;;;;19.07;46.47;96841.82;622046;228;62495;-68
2023/12/10 03:14:53;;;;;;;;;;;;;;;19.07;46.49;96836.49;622017;228;67379;-68
2023/12/10 03:17:21;;;;;;;;;;;;;;;19.08;46.52;96835.42;622033;228;64746;-68
2023/12/10 03:19:49;;;;;;;;;;;;;;;19.07;46.44;96825.05;622064;228;64897;-68
2023/12/10 03:22:16;;;;;;;;;;;;;;;19.08;46.49;96826.63;622050;228;64729;-68
2023/12/10 03:24:44;;;;;;;;;;;;;;;19.05;46.47;96827.95;622020;228;68096;-68
2023/12/10 03:27:11;;;;;;;;;;;;;;;19.07;46.44;96825.84;622007;228;62301;-68
2023/12/10 03:29:39;;;;;;;;;;;;;;;19.08;46.43;96834.62;621976;228;67188;-68
2023/12/10 03:32:07;;;;;;;;;;;;;;;19.07;46.41;96849.81;622031;228;64225;-68
2023/12/10 03:34:34;;;;;;;;;;;;;;;19.08;46.39;96847.94;622033;228;64786;-67
2023/12/10 03:37:02;;;;;;;;;;;;;;;19.07;46.46;96847.14;622782;227;67182;-67
2023/12/10 03:39:30;;;;;;;;;;;;;;;19.06;46.40;96842.06;623435;227;65455;-67
2023/12/10 03:41:57;;;;;;;;;;;;;;;19.08;46.41;96845.28;623401;227;64682;-67
2023/12/10 03:44:25;;;;;;;;;;;;;;;19.08;46.43;96843.41;623439;227;64496;-67
2023/12/10 03:46:52;;;;;;;;;;;;;;;19.06;46.44;96839.41;623474;227;66999;-67
2023/12/10 03:49:20;;;;;;;;;;;;;;;19.08;46.39;96843.41;623426;227;64850;-67
2023/12/10 03:51:48;;;;;;;;;;;;;;;19.08;46.39;96842.61;623413;227;67213;-67
2023/12/10 03:54:15;;;;;;;;;;;;;;;19.07;46.41;96836.49;623459;227;66775;-67
2023/12/10 03:56:43;;;;;;;;;;;;;;;19.07;46.45;96841.02;623397;227;62453;-67
2023/12/10 03:59:10;;;;;;;;;;;;;;;19.06;46.40;96834.08;623500;227;66679;-67
2023/12/10 04:01:39;;;;;;;;;;;;;;;19.07;46.36;96825.05;623472;227;64427;-69
2023/12/10 04:04:07;;;;;;;;;;;;;;;19.08;46.41;96829.30;623444;227;65505;-69
2023/12/10 04:06:36;;;;;;;;;;;;;;;19.07;46.40;96825.05;623446;227;64686;-69
2023/12/10 04:09:04;;;;;;;;;;;;;;;19.06;46.36;96829.55;623432;227;66666;-69
2023/12/10 04:11:32;;;;;;;;;;;;;;;19.07;46.37;96822.37;623504;227;62651;-69
2023/12/10 04:13:59;;;;;;;;;;;;;;;19.06;46.39;96815.44;623441;227;66830;-69
2023/12/10 04:16:27;;;;;;;;;;;;;;;19.07;46.38;96820.52;623474;227;64455;-68
2023/12/10 04:18:55;;;;;;;;;;;;;;;19.05;46.37;96822.63;623459;227;65614;-68
2023/12/10 04:21:23;;;;;;;;;;;;;;;19.03;46.35;96808.77;623438;227;64755;-69
2023/12/10 04:23:51;;;;;;;;;;;;;;;19.05;46.38;96817.30;623419;227;66970;-69
2023/12/10 04:26:18;;;;;;;;;;;;;;;19.06;46.36;96807.45;623460;227;64888;-70
2023/12/10 04:28:46;;;;;;;;;;;;;;;19.07;46.32;96811.73;623414;227;67111;-69
2023/12/10 04:31:14;;;;;;;;;;;;;;;19.06;46.39;96810.90;623414;227;67310;-70
2023/12/10 04:33:43;;;;;;;;;;;;;;;19.05;46.34;96816.51;623379;227;63497;-70
2023/12/10 04:36:11;;;;;;;;;;;;;;;19.07;46.33;96819.72;623049;227;67328;-69
2023/12/10 04:38:39;;;;;;;;;;;;;;;19.06;46.39;96812.77;622053;228;64995;-69
2023/12/10 04:41:07;;;;;;;;;;;;;;;19.07;46.30;96812.52;622012;228;64902;-69
2023/12/10 04:43:34;;;;;;;;;;;;;;;19.05;46.26;96811.19;621965;228;67155;-69
2023/12/10 04:46:02;;;;;;;;;;;;;;;19.06;46.27;96810.11;622021;228;64220;-69
2023/12/10 04:48:29;;;;;;;;;;;;;;;19.06;46.27;96810.11;621995;228;64704;-70
2023/12/10 04:50:57;;;;;;;;;;;;;;;19.06;46.28;96807.45;622015;228;67301;-69
2023/12/10 04:53:25;;;;;;;;;;;;;;;19.05;46.32;96805.86;621982;228;67337;-69
2023/12/10 04:55:52;;;;;;;;;;;;;;;19.06;46.32;96810.90;622001;228;64878;-70
2023/12/10 04:58:20;;;;;;;;;;;;;;;19.07;46.32;96803.73;621990;228;67272;-69
2023/12/10 05:00:47;;;;;;;;;;;;;;;19.06;46.32;96812.77;622007;227;67299;-69
2023/12/10 05:03:15;;;;;;;;;;;;;;;19.05;46.28;96803.98;622013;228;62330;-70
2023/12/10 05:05:43;;;;;;;;;;;;;;;19.04;46.28;96805.06;622013;228;67399;-69
2023/12/10 05:08:11;;;;;;;;;;;;;;;19.05;46.29;96805.86;621995;228;64832;-68
2023/12/10 05:10:38;;;;;;;;;;;;;;;19.06;46.31;96802.91;621992;228;65622;-68
2023/12/10 05:13:06;;;;;;;;;;;;;;;19.05;46.30;96803.19;622021;228;64511;-68
2023/12/10 05:15:34;;;;;;;;;;;;;;;19.08;46.28;96810.65;622055;228;64806;-70
2023/12/10 05:18:04;;;;;;;;;;;;;;;19.03;46.32;96797.32;621969;228;64702;-70
2023/12/10 05:20:32;;;;;;;;;;;;;;;19.07;46.36;96809.06;622003;228;67334;-69
2023/12/10 05:23:00;;;;;;;;;;;;;;;19.06;46.27;96802.91;621992;228;67022;-69
2023/12/10 05:25:28;;;;;;;;;;;;;;;19.05;46.33;96800.53;621999;228;62655;-69
2023/12/10 05:27:56;;;;;;;;;;;;;;;19.05;46.33;96795.20;621965;228;68172;-69
2023/12/10 05:30:23;;;;;;;;;;;;;;;19.03;46.32;96799.98;622013;228;64859;-69
2023/12/10 05:32:51;;;;;;;;;;;;;;;19.05;46.31;96798.66;621975;228;64804;-69
2023/12/10 05:35:19;;;;;;;;;;;;;;;19.03;46.34;96786.66;621972;228;64696;-69
2023/12/10 05:37:46;;;;;;;;;;;;;;;19.06;46.32;96786.14;623221;227;67952;-69
2023/12/10 05:40:14;;;;;;;;;;;;;;;19.06;46.29;96791.47;623454;227;62446;-69
2023/12/10 05:42:42;;;;;;;;;;;;;;;19.06;46.31;96794.13;623425;227;64627;-69
2023/12/10 05:45:09;;;;;;;;;;;;;;;19.05;46.33;96793.33;623392;227;67292;-69
2023/12/10 05:47:37;;;;;;;;;;;;;;;19.06;46.34;96789.59;623439;227;62350;-69
2023/12/10 05:50:05;;;;;;;;;;;;;;;19.07;46.31;96799.20;623403;227;67227;-69
2023/12/10 05:52:33;;;;;;;;;;;;;;;19.05;46.28;96789.88;623432;227;67043;-68
2023/12/10 05:55:00;;;;;;;;;;;;;;;19.04;46.28;96788.25;623465;227;64720;-68
2023/12/10 05:57:28;;;;;;;;;;;;;;;19.05;46.31;96792.53;623369;227;67561;-68
2023/12/10 05:59:55;;;;;;;;;;;;;;;19.05;46.30;96789.88;623480;227;66795;-68
2023/12/10 06:02:23;;;;;;;;;;;;;;;19.05;46.31;96795.20;623432;227;64963;-69
2023/12/10 06:04:51;;;;;;;;;;;;;;;19.05;46.32;96787.21;623410;227;64664;-69
2023/12/10 06:07:18;;;;;;;;;;;;;;;19.04;46.33;96791.74;623452;226;67547;-69
2023/12/10 06:09:46;;;;;;;;;;;;;;;19.04;46.32;96788.25;623412;227;62496;-69
2023/12/10 06:12:14;;;;;;;;;;;;;;;19.04;46.33;96788.25;623387;227;67384;-69
2023/12/10 06:14:41;;;;;;;;;;;;;;;19.06;46.34;96794.13;623395;227;64678;-69
2023/12/10 06:17:12;;;;;;;;;;;;;;;19.04;46.34;96788.25;623420;227;64877;-69
2023/12/10 06:19:39;;;;;;;;;;;;;;;19.05;46.32;96805.86;623471;227;64788;-70
2023/12/10 06:22:07;;;;;;;;;;;;;;;19.04;46.32;96793.58;623466;227;67093;-70
2023/12/10 06:24:35;;;;;;;;;;;;;;;19.02;46.31;96785.08;623403;227;62358;-69
2023/12/10 06:27:02;;;;;;;;;;;;;;;19.04;46.32;96793.58;623417;227;66862;-69
2023/12/10 06:29:30;;;;;;;;;;;;;;;19.05;46.30;96797.87;623409;227;67099;-70
2023/12/10 06:31:58;;;;;;;;;;;;;;;19.03;46.31;96792.78;623361;227;64638;-69
2023/12/10 06:34:25;;;;;;;;;;;;;;;19.03;46.32;96794.66;623478;227;67573;-70
2023/12/10 06:36:53;;;;;;;;;;;;;;;19.05;46.30;96805.86;623365;227;66802;-70
2023/12/10 06:39:20;;;;;;;;;;;;;;;19.06;46.30;96807.45;623434;227;64890;-67
2023/12/10 06:41:49;;;;;;;;;;;;;;;19.05;46.26;96803.19;623479;227;64754;-68
2023/12/10 06:44:21;;;;;;;;;;;;;;;19.05;46.30;96816.51;623443;227;66958;-68
2023/12/10 06:46:46;;;;;;;;;;;;;;;19.05;46.30;96816.51;623360;227;64580;-68
2023/12/10 06:49:13;;;;;;;;;;;;;;;19.05;46.31;96816.51;623470;227;64709;-68
2023/12/10 06:51:41;;;;;;;;;;;;;;;19.04;46.29;96817.55;623413;227;64674;-68
2023/12/10 06:54:10;;;;;;;;;;;;;;;19.05;46.32;96825.30;623435;227;64708;-68
2023/12/10 06:56:43;;;;;;;;;;;;;;;19.04;46.34;96830.87;623411;227;67245;-68
2023/12/10 06:59:07;;;;;;;;;;;;;;;19.03;46.25;96830.08;623190;227;66837;-68
2023/12/10 07:01:36;;;;;;;;;;;;;;;19.02;46.25;96831.15;623439;227;64688;-68
2023/12/10 07:04:05;;;;;;;;;;;;;;;19.02;46.28;96833.02;623433;227;64727;-69
2023/12/10 07:06:32;;;;;;;;;;;;;;;19.03;46.33;96834.61;623441;227;66995;-69
2023/12/10 07:09:00;;;;;;;;;;;;;;;19.03;46.32;96831.94;623444;227;64885;-69
2023/12/10 07:11:28;;;;;;;;;;;;;;;19.01;46.27;96831.40;623452;227;64757;-69
2023/12/10 07:13:55;;;;;;;;;;;;;;;19.03;46.31;96831.94;623543;227;66783;-69
2023/12/10 07:16:23;;;;;;;;;;;;;;;19.01;47.18;96837.52;623451;227;62360;-69
2023/12/10 07:18:51;;;;;;;;;;;;;;;19.02;45.75;96835.68;623436;227;67343;-69
2023/12/10 07:21:18;;;;;;;;;;;;;;;19.01;45.75;96832.19;623420;227;66182;-69
2023/12/10 07:23:46;;;;;;;;;;;;;;;19.03;45.67;96840.73;623446;227;62339;-69
2023/12/10 07:26:16;;;;;;;;;;;;;;;19.04;45.62;96838.86;623473;227;67156;-69
2023/12/10 07:28:43;;;;;;;;;;;;;;;19.03;45.50;96839.93;623458;227;65492;-69
2023/12/10 07:31:11;;;;;;;;;;;;;;;19.04;45.51;96839.69;623399;227;64825;-69
2023/12/10 07:33:38;;;;;;;;;;;;;;;19.03;45.46;96839.93;623413;227;64745;-69
2023/12/10 07:36:07;;;;;;;;;;;;;;;19.05;45.47;96845.80;623414;227;67011;-69
2023/12/10 07:38:35;;;;;;;;;;;;;;;19.04;45.44;96846.84;623523;227;62719;-69
2023/12/10 07:41:04;;;;;;;;;;;;;;;19.07;45.42;96852.47;623435;227;66887;-69
2023/12/10 07:43:32;;;;;;;;;;;;;;;19.08;45.43;96851.40;623438;227;67143;-69
2023/12/10 07:45:59;;;;;;;;;;;;;;;19.06;45.49;96866.04;623397;227;62422;-69
2023/12/10 07:48:27;;;;;;;;;;;;;;;19.07;45.44;96854.34;623453;227;67456;-69
2023/12/10 07:50:55;;;;;;;;;;;;;;;19.07;45.41;96863.13;623494;227;64479;-69
2023/12/10 07:53:23;;;;;;;;;;;;;;;19.06;45.38;96874.03;623368;227;63691;-69
2023/12/10 07:55:51;;;;;;;;;;;;;;;19.04;45.42;96868.98;623393;227;64783;-69
2023/12/10 07:58:18;;;;;;;;;;;;;;;19.05;45.38;96873.23;623416;227;66982;-69
2023/12/10 08:00:47;;;;;;;;;;;;;;;19.07;45.35;96879.11;623459;227;64876;-69
2023/12/10 08:03:15;;;;;;;;;;;;;;;19.06;45.35;96876.69;623521;227;66928;-69
2023/12/10 08:05:42;;;;;;;;;;;;;;;19.11;45.33;96884.70;623488;227;64254;-70
2023/12/10 08:08:10;;;;;;;;;;;;;;;19.09;45.32;96881.49;623499;227;64853;-70
2023/12/10 08:10:38;;;;;;;;;;;;;;;19.11;45.32;96889.23;623478;227;66789;-69
2023/12/10 08:13:05;;;;;;;;;;;;;;;19.10;45.30;96885.78;623494;227;66027;-69
2023/12/10 08:15:33;;;;;;;;;;;;;;;19.10;45.29;96893.77;623485;227;64879;-69
2023/12/10 08:18:00;;;;;;;;;;;;;;;19.10;45.31;96884.95;623488;227;64402;-69
2023/12/10 08:20:28;;;;;;;;;;;;;;;19.08;45.32;96879.91;623531;227;64439;-69
2023/12/10 08:22:56;;;;;;;;;;;;;;;19.10;45.33;96887.61;623511;227;64982;-69
2023/12/10 08:25:24;;;;;;;;;;;;;;;19.08;45.30;96875.37;623453;227;64396;-69
2023/12/10 08:27:51;;;;;;;;;;;;;;;19.11;45.30;96882.04;623493;227;64424;-70
2023/12/10 08:30:19;;;;;;;;;;;;;;;19.10;45.28;96867.13;623481;227;64698;-70
2023/12/10 08:32:47;;;;;;;;;;;;;;;19.08;45.26;96863.92;623479;227;67238;-70
2023/12/10 08:35:14;;;;;;;;;;;;;;;19.11;45.25;96860.73;623445;227;67311;-70
2023/12/10 08:37:42;;;;;;;;;;;;;;;19.09;45.25;96860.19;622233;227;65027;-70
2023/12/10 08:40:10;;;;;;;;;;;;;;;19.10;45.25;96852.98;622038;228;66803;-70
2023/12/10 08:42:37;;;;;;;;;;;;;;;19.13;45.27;96855.95;622066;228;66995;-70
2023/12/10 08:45:05;;;;;;;;;;;;;;;19.10;45.26;96847.66;622049;228;62356;-70
2023/12/10 08:47:33;;;;;;;;;;;;;;;19.12;45.25;96845.55;622032;228;65021;-70
2023/12/10 08:50:00;;;;;;;;;;;;;;;19.11;45.25;96839.42;622026;228;67219;-70
2023/12/10 08:52:28;;;;;;;;;;;;;;;19.11;45.25;96836.76;622060;228;62390;-70
2023/12/10 08:54:56;;;;;;;;;;;;;;;19.11;45.25;96842.09;622052;228;67846;-69
2023/12/10 08:57:24;;;;;;;;;;;;;;;19.11;45.24;96836.76;622036;228;64668;-70
2023/12/10 08:59:52;;;;;;;;;;;;;;;19.12;45.28;96834.89;622020;228;62748;-70
2023/12/10 09:02:19;;;;;;;;;;;;;;;19.10;45.31;96829.02;622036;228;67511;-70
2023/12/10 09:04:47;;;;;;;;;;;;;;;19.12;45.34;96825.03;622055;228;64460;-69
2023/12/10 09:07:15;;;;;;;;;;;;;;;19.12;45.37;96824.23;622038;228;64889;-69
2023/12/10 09:09:42;;;;;;;;;;;;;;;19.11;45.31;96812.78;622045;228;64774;-69
2023/12/10 09:12:10;;;;;;;;;;;;;;;19.12;45.29;96814.37;622043;228;67311;-68
2023/12/10 09:14:38;;;;;;;;;;;;;;;19.12;45.24;96809.05;622040;228;62363;-68
2023/12/10 09:17:05;;;;;;;;;;;;;;;19.12;45.27;96814.37;622062;228;68002;-68
2023/12/10 09:19:33;;;;;;;;;;;;;;;19.13;45.23;96808.00;622008;228;64698;-68
2023/12/10 09:22:03;;;;;;;;;;;;;;;19.12;45.22;96803.72;622046;228;62753;-68
2023/12/10 09:24:31;;;;;;;;;;;;;;;19.13;45.24;96805.34;622030;228;68078;-68
2023/12/10 09:27:00;;;;;;;;;;;;;;;19.11;45.24;96798.67;622045;228;64671;-68
2023/12/10 09:29:27;;;;;;;;;;;;;;;19.11;45.30;96788.81;622051;228;64715;-69
2023/12/10 09:31:55;;;;;;;;;;;;;;;19.13;45.23;96789.36;622019;228;64791;-68
2023/12/10 09:34:22;;;;;;;;;;;;;;;19.14;45.25;96782.95;622022;228;67226;-68
2023/12/10 09:36:50;;;;;;;;;;;;;;;19.14;45.22;96776.83;622010;228;62195;-68
2023/12/10 09:39:18;;;;;;;;;;;;;;;19.14;45.22;96772.30;622028;228;68051;-69
2023/12/10 09:41:46;;;;;;;;;;;;;;;19.14;45.23;96766.97;622050;228;64583;-68
2023/12/10 09:44:13;;;;;;;;;;;;;;;19.14;45.23;96771.51;622047;228;64561;-69
2023/12/10 09:46:42;;;;;;;;;;;;;;;19.14;45.21;96758.98;621988;228;67463;-69
2023/12/10 09:49:09;;;;;;;;;;;;;;;19.15;45.21;96776.58;622020;228;64978;-69
2023/12/10 09:51:37;;;;;;;;;;;;;;;19.14;45.23;96761.64;622042;228;64894;-69
2023/12/10 09:54:05;;;;;;;;;;;;;;;19.14;45.26;96753.66;622048;228;64708;-69
2023/12/10 09:56:32;;;;;;;;;;;;;;;19.15;45.25;96757.11;622014;228;67899;-69
2023/12/10 09:59:00;;;;;;;;;;;;;;;19.14;45.24;96750.20;622013;228;62616;-69
2023/12/10 10:01:28;;;;;;;;;;;;;;;19.16;45.24;96748.87;622018;228;67219;-69
2023/12/10 10:03:56;;;;;;;;;;;;;;;19.15;45.26;96739.29;622038;228;64680;-69
2023/12/10 10:06:23;;;;;;;;;;;;;;;19.16;45.26;96745.41;622058;228;64711;-69
2023/12/10 10:08:51;;;;;;;;;;;;;;;19.16;45.29;96732.09;622024;228;66786;-69
2023/12/10 10:11:19;;;;;;;;;;;;;;;19.14;45.29;96724.35;622024;228;67023;-69
2023/12/10 10:13:52;;;;;;;;;;;;;;;19.18;45.29;96722.77;622008;228;64886;-69
2023/12/10 10:16:20;;;;;;;;;;;;;;;19.15;45.34;96720.64;622067;228;64810;-69
2023/12/10 10:18:48;;;;;;;;;;;;;;;19.15;45.37;96723.31;622048;228;66972;-69
2023/12/10 10:21:16;;;;;;;;;;;;;;;19.17;45.42;96723.02;622075;228;64971;-69
2023/12/10 10:23:43;;;;;;;;;;;;;;;19.14;45.44;96720.89;622064;228;67341;-69
2023/12/10 10:26:11;;;;;;;;;;;;;;;19.15;45.47;96717.98;622029;228;66987;-69
2023/12/10 10:28:39;;;;;;;;;;;;;;;19.15;45.47;96715.31;622078;228;64967;-69
2023/12/10 10:31:09;;;;;;;;;;;;;;;19.13;45.49;96714.77;622082;228;65011;-69
2023/12/10 10:33:37;;;;;;;;;;;;;;;19.17;45.51;96723.81;622055;228;64977;-69
2023/12/10 10:36:05;;;;;;;;;;;;;;;19.15;45.54;96723.31;622019;228;62696;-69
2023/12/10 10:38:33;;;;;;;;;;;;;;;19.15;45.52;96717.16;622032;228;64865;-69
2023/12/10 10:41:01;;;;;;;;;;;;;;;19.16;45.54;96722.23;622076;228;66964;-69
2023/12/10 10:43:29;;;;;;;;;;;;;;;19.16;45.52;96721.44;622058;228;62713;-69
2023/12/10 10:45:56;;;;;;;;;;;;;;;19.16;45.51;96718.77;622082;228;67224;-69
2023/12/10 10:48:25;;;;;;;;;;;;;;;19.15;45.61;96717.16;622070;228;67235;-69
2023/12/10 10:50:54;;;;;;;;;;;;;;;19.16;45.59;96713.45;622053;228;62469;-69
2023/12/10 10:53:22;;;;;;;;;;;;;;;19.16;45.70;96711.58;622032;228;67135;-69
2023/12/10 10:55:50;;;;;;;;;;;;;;;19.15;46.07;96715.31;622085;228;66793;-69
2023/12/10 10:58:23;;;;;;;;;;;;;;;19.16;46.00;96716.91;622074;228;62421;-69
2023/12/10 11:00:51;;;;;;;;;;;;;;;19.16;45.69;96724.10;622061;228;67294;-70
2023/12/10 11:03:19;;;;;;;;;;;;;;;19.16;45.60;96713.45;622028;228;65139;-68
2023/12/10 11:05:46;;;;;;;;;;;;;;;19.13;45.58;96706.78;622031;228;64699;-68
2023/12/10 11:08:14;;;;;;;;;;;;;;;19.16;45.63;96708.91;622065;228;64515;-68
2023/12/10 11:10:43;;;;;;;;;;;;;;;19.17;45.60;96710.50;622063;228;67072;-68
2023/12/10 11:13:11;;;;;;;;;;;;;;;19.17;45.63;96704.38;621533;228;62711;-68
2023/12/10 11:15:40;;;;;;;;;;;;;;;19.16;45.69;96694.80;622062;228;68036;-68
2023/12/10 11:18:07;;;;;;;;;;;;;;;19.16;45.71;96695.59;622052;228;64485;-68
2023/12/10 11:20:46;;;;;;;;;;;;;;;19.16;45.73;96695.59;622055;228;64746;-68
2023/12/10 11:23:19;;;;;;;;;;;;;;;19.16;45.71;96695.59;622054;228;66814;-68
2023/12/10 11:25:47;;;;;;;;;;;;;;;19.16;45.69;96700.92;622062;228;65025;-69
2023/12/10 11:28:17;;;;;;;;;;;;;;;19.17;45.67;96702.51;622039;228;63561;-68
2023/12/10 11:30:45;;;;;;;;;;;;;;;19.16;45.65;96695.59;622008;228;66077;-68
2023/12/10 11:33:14;;;;;;;;;;;;;;;19.16;45.65;96700.13;622040;228;64668;-68
2023/12/10 11:35:42;;;;;;;;;;;;;;;19.16;45.62;96698.25;622041;227;64728;-68
2023/12/10 11:38:09;;;;;;;;;;;;;;;19.18;45.63;96697.97;623497;227;67344;-68
2023/12/10 11:40:37;;;;;;;;;;;;;;;19.17;45.63;96702.51;623469;227;64667;-68
2023/12/10 11:43:08;;;;;;;;;;;;;;;19.17;45.67;96696.38;623488;227;64993;-68
2023/12/10 11:45:36;;;;;;;;;;;;;;;19.18;45.71;96700.64;623494;227;67085;-68
2023/12/10 11:48:04;;;;;;;;;;;;;;;19.16;45.70;96690.27;623464;227;66918;-68
2023/12/10 11:50:32;;;;;;;;;;;;;;;19.17;45.70;96697.18;623501;227;63480;-68
2023/12/10 11:53:01;;;;;;;;;;;;;;;19.17;45.70;96697.18;623472;227;67331;-68
2023/12/10 11:55:29;;;;;;;;;;;;;;;19.17;45.69;96694.52;623482;227;64962;-68
2023/12/10 11:57:57;;;;;;;;;;;;;;;19.18;45.69;96692.64;623466;227;65649;-68
2023/12/10 12:00:27;;;;;;;;;;;;;;;19.19;45.69;96688.94;623468;227;64810;-68
2023/12/10 12:02:54;;;;;;;;;;;;;;;19.17;45.70;96683.06;623490;227;67254;-69
2023/12/10 12:05:22;;;;;;;;;;;;;;;19.17;45.73;96678.53;623498;227;64617;-69
2023/12/10 12:07:50;;;;;;;;;;;;;;;19.18;45.71;96677.48;623490;227;67325;-69
2023/12/10 12:10:18;;;;;;;;;;;;;;;19.17;45.69;96686.52;623509;227;64049;-69
2023/12/10 12:12:46;;;;;;;;;;;;;;;19.18;45.70;96682.81;623505;227;64807;-69
2023/12/10 12:15:14;;;;;;;;;;;;;;;19.17;45.73;96683.86;623477;227;66815;-68
2023/12/10 12:17:43;;;;;;;;;;;;;;;19.16;45.80;96682.27;623494;227;64594;-69
2023/12/10 12:20:18;;;;;;;;;;;;;;;19.18;45.84;96687.31;623490;227;64842;-69
2023/12/10 12:22:46;;;;;;;;;;;;;;;19.19;45.92;96689.73;623445;227;66865;-68
2023/12/10 12:25:13;;;;;;;;;;;;;;;19.19;46.05;96678.28;623485;227;64447;-68
2023/12/10 12:27:41;;;;;;;;;;;;;;;19.18;46.05;96680.15;623493;227;65001;-68
2023/12/10 12:30:09;;;;;;;;;;;;;;;19.19;45.84;96683.61;623495;227;64409;-68
2023/12/10 12:32:37;;;;;;;;;;;;;;;19.17;45.88;96670.55;623481;227;65051;-68
2023/12/10 12:35:05;;;;;;;;;;;;;;;19.17;45.85;96669.75;623484;227;64986;-68
2023/12/10 12:37:32;;;;;;;;;;;;;;;19.19;45.82;96679.08;622301;227;66852;-68
2023/12/10 12:40:00;;;;;;;;;;;;;;;19.17;45.81;96675.08;622072;228;64594;-68
2023/12/10 12:42:28;;;;;;;;;;;;;;;19.18;45.79;96688.14;622017;228;64654;-68
2023/12/10 12:44:55;;;;;;;;;;;;;;;19.20;45.78;96688.66;622054;228;67611;-68
2023/12/10 12:47:23;;;;;;;;;;;;;;;19.18;45.78;96692.64;622071;228;67012;-68
2023/12/10 12:49:50;;;;;;;;;;;;;;;19.21;45.78;96702.80;622048;228;64913;-68
2023/12/10 12:52:18;;;;;;;;;;;;;;;19.18;45.78;96700.64;622023;228;67239;-68